Straumbas — LIOD — position and weather

sailwx.info

Track history (hours):
 
Tides and Currents Weather Stations Pressure Air Temp Water Temp Dewpoint Dewpoint Depression Visibility Wind Speed Wind Dir Waves Ship Positions

Straumbas

Last reported at 2015-Apr-10 18:17 UTC. Time now 2015-Apr-19 01:09 UTC.
Position N 59°36' E 005°46'.
Warning: this ship's position is 8 days out of date.

Length 38 m; draft 5.5 m.

Type: Fishing. MMSI: 258035000.

Date/timePositionNaut miles runAvg speedWind from/ knotsBaromVisibWave heightAir tempDewpointWater temp
2015-Apr-10 18:17N 59°36' E 005°46'19 0.6
2015-Apr-09 12:33N 59°27' E 005°13'7 2.3
2015-Apr-09 09:24N 59°20' E 005°18'0 0.0
2015-Apr-09 08:28N 59°20' E 005°18'0 0.0
2015-Apr-09 07:32N 59°20' E 005°18'0 0.0
2015-Apr-09 06:17N 59°20' E 005°18'0 0.0
2015-Apr-09 05:33N 59°20' E 005°18'0 0.0
2015-Apr-09 04:33N 59°20' E 005°18'0 0.0
2015-Apr-09 03:27N 59°20' E 005°18'0 0.0
2015-Apr-09 02:24N 59°20' E 005°18'0 0.0
2015-Apr-09 01:21N 59°20' E 005°18'0 0.0
2015-Apr-09 00:26N 59°20' E 005°18'0 0.0
2015-Apr-08 23:33N 59°20' E 005°18'0 0.0
2015-Apr-08 22:30N 59°20' E 005°18'0 0.0
2015-Apr-08 21:28N 59°20' E 005°18'0 0.2
2015-Apr-08 20:03N 59°20' E 005°18'0 0.0
2015-Apr-08 19:20N 59°20' E 005°18'0 0.0
2015-Apr-08 18:30N 59°20' E 005°18'0 0.0
2015-Apr-08 17:19N 59°20' E 005°18'0 0.0
2015-Apr-08 16:23N 59°20' E 005°18'0 0.0
2015-Apr-08 15:18N 59°20' E 005°18'0 0.0
2015-Apr-08 14:33N 59°20' E 005°18'0 0.0
2015-Apr-08 13:33N 59°20' E 005°18'0 0.0
2015-Apr-08 12:33N 59°20' E 005°18'0 0.0
2015-Apr-08 11:26N 59°20' E 005°18'0 0.2
2015-Apr-08 10:33N 59°20' E 005°18'0 0.0
2015-Apr-08 09:33N 59°20' E 005°18'0 0.0
2015-Apr-08 08:33N 59°20' E 005°18'0 0.0
2015-Apr-08 07:17N 59°20' E 005°18'0 0.0
2015-Apr-08 06:19N 59°20' E 005°18'0 0.0
2015-Apr-08 05:27N 59°20' E 005°18'0 0.0
2015-Apr-08 04:31N 59°20' E 005°18'0 0.0
2015-Apr-08 03:31N 59°20' E 005°18'4 4.4
2015-Apr-08 02:33N 59°24' E 005°16'237 6.2
2015-Apr-06 12:33N 63°10' E 007°45'50 7.1
2015-Apr-06 05:33N 63°40' E 009°16'86 7.2
2015-Apr-05 17:33N 64°50' E 011°11'8 8.5
2015-Apr-05 16:34N 64°56' E 011°26'9 8.6
2015-Apr-05 15:30N 65°02' E 011°42'82 8.0
2015-Apr-05 05:18N 66°18' E 012°56'6 8.1
2015-Apr-05 04:32N 66°24' E 012°59'33 7.9
2015-Apr-05 00:18N 66°55' E 013°29'6 7.4
2015-Apr-04 23:33N 66°60' E 013°38'9 8.5
2015-Apr-04 22:31N 67°05' E 013°56'8 8.3
2015-Apr-04 21:33N 67°12' E 014°06'9 8.6
2015-Apr-04 20:33N 67°19' E 014°19'8 8.4
2015-Apr-04 19:33N 67°27' E 014°27'10 8.6
2015-Apr-04 18:27N 67°36' E 014°20'8 8.5
2015-Apr-04 17:32N 67°44' E 014°17'150 7.9
2015-Apr-03 22:33N 69°35' E 018°52'4 4.2
2015-Apr-03 21:33N 69°39' E 018°59'82 8.0
2015-Apr-03 11:16N 70°27' E 022°14'10 8.6
2015-Apr-03 10:03N 70°30' E 022°44'4 8.5
2015-Apr-03 09:33N 70°31' E 022°56'9 8.8
2015-Apr-03 08:33N 70°37' E 023°15'9 9.1
2015-Apr-03 07:33N 70°44' E 023°34'  
Track history (hours):
 
Tides and Currents Weather Stations Pressure Air Temp Water Temp Dewpoint Dewpoint Depression Visibility Wind Speed Wind Dir Waves Ship Positions

Straumbas

Last reported at 2015-Apr-10 18:17 UTC. Time now 2015-Apr-19 01:09 UTC.
Position N 59°36' E 005°46'.
Warning: this ship's position is 8 days out of date.

Length 38 m; draft 5.5 m.

Type: Fishing. MMSI: 258035000.

Date/timePositionNaut miles runAvg speedWind from/ knotsBaromVisibWave heightAir tempDewpointWater temp
2015-Apr-10 18:17N 59°36' E 005°46'19 0.6
2015-Apr-09 12:33N 59°27' E 005°13'7 2.3
2015-Apr-09 09:24N 59°20' E 005°18'0 0.0
2015-Apr-09 08:28N 59°20' E 005°18'0 0.0
2015-Apr-09 07:32N 59°20' E 005°18'0 0.0
2015-Apr-09 06:17N 59°20' E 005°18'0 0.0
2015-Apr-09 05:33N 59°20' E 005°18'0 0.0
2015-Apr-09 04:33N 59°20' E 005°18'0 0.0
2015-Apr-09 03:27N 59°20' E 005°18'0 0.0
2015-Apr-09 02:24N 59°20' E 005°18'0 0.0
2015-Apr-09 01:21N 59°20' E 005°18'0 0.0
2015-Apr-09 00:26N 59°20' E 005°18'0 0.0
2015-Apr-08 23:33N 59°20' E 005°18'0 0.0
2015-Apr-08 22:30N 59°20' E 005°18'0 0.0
2015-Apr-08 21:28N 59°20' E 005°18'0 0.2
2015-Apr-08 20:03N 59°20' E 005°18'0 0.0
2015-Apr-08 19:20N 59°20' E 005°18'0 0.0
2015-Apr-08 18:30N 59°20' E 005°18'0 0.0
2015-Apr-08 17:19N 59°20' E 005°18'0 0.0
2015-Apr-08 16:23N 59°20' E 005°18'0 0.0
2015-Apr-08 15:18N 59°20' E 005°18'0 0.0
2015-Apr-08 14:33N 59°20' E 005°18'0 0.0
2015-Apr-08 13:33N 59°20' E 005°18'0 0.0
2015-Apr-08 12:33N 59°20' E 005°18'0 0.0
2015-Apr-08 11:26N 59°20' E 005°18'0 0.2
2015-Apr-08 10:33N 59°20' E 005°18'0 0.0
2015-Apr-08 09:33N 59°20' E 005°18'0 0.0
2015-Apr-08 08:33N 59°20' E 005°18'0 0.0
2015-Apr-08 07:17N 59°20' E 005°18'0 0.0
2015-Apr-08 06:19N 59°20' E 005°18'0 0.0
2015-Apr-08 05:27N 59°20' E 005°18'0 0.0
2015-Apr-08 04:31N 59°20' E 005°18'0 0.0
2015-Apr-08 03:31N 59°20' E 005°18'4 4.4
2015-Apr-08 02:33N 59°24' E 005°16'237 6.2
2015-Apr-06 12:33N 63°10' E 007°45'50 7.1
2015-Apr-06 05:33N 63°40' E 009°16'86 7.2
2015-Apr-05 17:33N 64°50' E 011°11'8 8.5
2015-Apr-05 16:34N 64°56' E 011°26'9 8.6
2015-Apr-05 15:30N 65°02' E 011°42'82 8.0
2015-Apr-05 05:18N 66°18' E 012°56'6 8.1
2015-Apr-05 04:32N 66°24' E 012°59'33 7.9
2015-Apr-05 00:18N 66°55' E 013°29'6 7.4
2015-Apr-04 23:33N 66°60' E 013°38'9 8.5
2015-Apr-04 22:31N 67°05' E 013°56'8 8.3
2015-Apr-04 21:33N 67°12' E 014°06'9 8.6
2015-Apr-04 20:33N 67°19' E 014°19'8 8.4
2015-Apr-04 19:33N 67°27' E 014°27'10 8.6
2015-Apr-04 18:27N 67°36' E 014°20'8 8.5
2015-Apr-04 17:32N 67°44' E 014°17'150 7.9
2015-Apr-03 22:33N 69°35' E 018°52'4 4.2
2015-Apr-03 21:33N 69°39' E 018°59'82 8.0
2015-Apr-03 11:16N 70°27' E 022°14'10 8.6
2015-Apr-03 10:03N 70°30' E 022°44'4 8.5
2015-Apr-03 09:33N 70°31' E 022°56'9 8.8
2015-Apr-03 08:33N 70°37' E 023°15'9 9.1
2015-Apr-03 07:33N 70°44' E 023°34'  

Dump ship's entire track history